createdAt,value
2019-02-24T00:00:51.376Z,33.60
2019-02-24T00:03:22.637Z,36.80
2019-02-24T00:05:52.729Z,37.50
2019-02-24T00:08:22.368Z,36.50
2019-02-24T00:10:52.025Z,42.10
2019-02-24T00:13:22.003Z,42.00
2019-02-24T00:15:51.585Z,38.20
2019-02-24T00:18:21.160Z,42.60
2019-02-24T00:20:50.793Z,41.10
2019-02-24T00:23:20.437Z,41.20
2019-02-24T00:25:50.466Z,33.70
2019-02-24T00:28:20.104Z,38.80
2019-02-24T00:30:50.786Z,36.90
2019-02-24T00:33:20.409Z,39.50
2019-02-24T00:35:50.059Z,43.30
2019-02-24T00:38:20.819Z,44.50
2019-02-24T00:40:50.624Z,43.90
2019-02-24T00:43:20.257Z,44.30
2019-02-24T00:45:49.923Z,44.90
2019-02-24T00:48:19.514Z,45.20
2019-02-24T00:50:49.079Z,44.90
2019-02-24T00:53:19.819Z,45.00
2019-02-24T00:55:49.401Z,45.30
2019-02-24T00:58:18.893Z,45.20
2019-02-24T01:00:48.616Z,45.90
2019-02-24T01:03:18.565Z,45.70
2019-02-24T01:05:48.137Z,45.90
2019-02-24T01:08:17.779Z,46.30
2019-02-24T01:10:47.505Z,45.50
2019-02-24T01:13:17.626Z,45.90
2019-02-24T01:15:47.327Z,46.60
2019-02-24T01:18:17.227Z,46.10
2019-02-24T01:20:47.351Z,45.60
2019-02-24T01:23:18.005Z,45.90
2019-02-24T01:25:47.905Z,45.00
2019-02-24T01:28:25.031Z,45.10
2019-02-24T01:30:48.681Z,45.40
2019-02-24T01:33:18.237Z,46.40
2019-02-24T01:35:47.886Z,46.30
2019-02-24T01:38:17.762Z,46.00
2019-02-24T01:40:47.397Z,46.80
2019-02-24T01:43:16.984Z,46.30
2019-02-24T01:45:46.612Z,46.80
2019-02-24T01:48:16.257Z,46.80
2019-02-24T01:50:46.427Z,44.90
2019-02-24T01:53:15.997Z,46.40
2019-02-24T01:55:45.636Z,41.50
2019-02-24T01:58:15.264Z,46.10
2019-02-24T02:00:44.994Z,47.30
2019-02-24T02:03:15.081Z,47.60
2019-02-24T02:05:44.643Z,47.20
2019-02-24T02:08:14.399Z,47.80
2019-02-24T02:10:43.958Z,46.20
2019-02-24T02:13:13.597Z,47.40
2019-02-24T02:15:43.627Z,47.60
2019-02-24T02:18:13.196Z,47.70
2019-02-24T02:20:43.837Z,47.90
2019-02-24T02:23:13.483Z,47.10
2019-02-24T02:25:43.107Z,46.60
2019-02-24T02:28:12.727Z,46.40
2019-02-24T02:30:42.604Z,46.30
2019-02-24T02:33:12.259Z,46.30
2019-02-24T02:35:41.958Z,47.50
2019-02-24T02:38:11.555Z,47.40
2019-02-24T02:40:41.048Z,47.20
2019-02-24T02:43:11.105Z,47.80
2019-02-24T02:45:40.661Z,47.30
2019-02-24T02:48:10.368Z,47.70
2019-02-24T02:50:39.930Z,47.90
2019-02-24T02:53:09.430Z,47.90
2019-02-24T02:55:38.951Z,47.90
2019-02-24T02:58:08.520Z,47.20
2019-02-24T03:00:38.506Z,48.50
2019-02-24T03:03:08.152Z,47.70
2019-02-24T03:05:40.491Z,48.50
2019-02-24T03:08:11.699Z,48.60
2019-02-24T03:10:41.402Z,48.50
2019-02-24T03:13:11.059Z,48.30
2019-02-24T03:15:41.103Z,48.20
2019-02-24T03:18:10.759Z,48.00
2019-02-24T03:20:40.488Z,48.30
2019-02-24T03:23:10.051Z,48.20
2019-02-24T03:25:39.691Z,47.90
2019-02-24T03:28:09.396Z,48.60
2019-02-24T03:30:39.059Z,48.00
2019-02-24T03:33:08.702Z,48.70
2019-02-24T03:35:38.375Z,49.00
2019-02-24T03:38:08.372Z,48.90
2019-02-24T03:40:38.374Z,48.90
2019-02-24T03:43:08.301Z,49.10
2019-02-24T03:45:38.399Z,49.40
2019-02-24T03:48:08.110Z,49.30
2019-02-24T03:50:37.826Z,48.90
2019-02-24T03:53:07.740Z,49.10
2019-02-24T03:55:37.758Z,49.20
2019-02-24T03:58:07.405Z,49.60
2019-02-24T04:00:37.383Z,50.00
2019-02-24T04:03:07.095Z,50.40
2019-02-24T04:05:36.610Z,49.80
2019-02-24T04:08:06.235Z,50.40
2019-02-24T04:10:36.234Z,50.80
2019-02-24T04:13:06.352Z,50.60
2019-02-24T04:15:35.986Z,50.60
2019-02-24T04:18:05.506Z,50.70
2019-02-24T04:20:35.144Z,50.20
2019-02-24T04:23:04.861Z,50.40
2019-02-24T04:25:34.345Z,50.40
2019-02-24T04:28:04.511Z,50.20
2019-02-24T04:30:34.423Z,49.80
2019-02-24T04:33:04.423Z,50.60
2019-02-24T04:35:34.979Z,50.70
2019-02-24T04:38:04.616Z,50.50
2019-02-24T04:40:34.276Z,50.50
2019-02-24T04:43:04.182Z,51.00
2019-02-24T04:45:34.222Z,50.90
2019-02-24T04:48:03.728Z,50.70
2019-02-24T04:50:33.372Z,50.50
2019-02-24T04:53:04.031Z,50.70
2019-02-24T04:55:33.594Z,51.00
2019-02-24T04:58:03.308Z,50.90
2019-02-24T05:00:32.868Z,51.00
2019-02-24T05:03:02.533Z,51.10
2019-02-24T05:05:33.749Z,51.20
2019-02-24T05:08:03.387Z,50.80
2019-02-24T05:10:33.032Z,51.10
2019-02-24T05:13:02.530Z,51.10
2019-02-24T05:15:32.474Z,51.30
2019-02-24T05:18:02.118Z,51.40
2019-02-24T05:20:31.719Z,51.30
2019-02-24T05:23:01.275Z,51.10
2019-02-24T05:25:31.204Z,51.10
2019-02-24T05:28:00.772Z,50.70
2019-02-24T05:30:30.466Z,44.50
2019-02-24T05:33:00.049Z,50.00
2019-02-24T05:35:29.693Z,47.40
2019-02-24T05:37:59.323Z,49.80
2019-02-24T05:40:28.957Z,50.20
2019-02-24T05:42:58.477Z,50.80
2019-02-24T05:45:28.372Z,50.90
2019-02-24T05:47:58.017Z,50.70
2019-02-24T05:50:27.683Z,50.00
2019-02-24T05:52:57.257Z,50.30
2019-02-24T05:55:27.213Z,50.40
2019-02-24T05:57:57.227Z,50.00
2019-02-24T06:00:27.145Z,50.60
2019-02-24T06:02:57.162Z,50.50
2019-02-24T06:05:27.169Z,50.90
2019-02-24T06:07:56.821Z,51.10
2019-02-24T06:10:26.302Z,50.70
2019-02-24T06:12:56.010Z,50.90
2019-02-24T06:15:25.641Z,50.80
2019-02-24T06:17:55.286Z,50.70
2019-02-24T06:20:24.927Z,52.10
2019-02-24T06:22:54.565Z,51.10
2019-02-24T06:25:25.070Z,51.00
2019-02-24T06:27:55.090Z,51.30
2019-02-24T06:30:24.983Z,51.00
2019-02-24T06:32:55.012Z,50.60
2019-02-24T06:35:25.045Z,51.00
2019-02-24T06:37:54.939Z,51.50
2019-02-24T06:40:24.459Z,51.40
2019-02-24T06:42:54.140Z,51.40
2019-02-24T06:45:24.061Z,51.50
2019-02-24T06:47:53.698Z,51.30
2019-02-24T06:50:23.335Z,51.20
2019-02-24T06:52:54.019Z,51.40
2019-02-24T06:55:23.931Z,51.20
2019-02-24T06:57:53.515Z,51.00
2019-02-24T07:00:23.557Z,51.10
2019-02-24T07:02:53.483Z,50.50
2019-02-24T07:05:23.120Z,51.10
2019-02-24T07:07:52.994Z,51.20
2019-02-24T07:10:22.738Z,50.40
2019-02-24T07:12:52.375Z,51.30
2019-02-24T07:15:22.332Z,51.30
2019-02-24T07:17:52.004Z,51.50
2019-02-24T07:20:21.486Z,51.10
2019-02-24T07:22:51.145Z,50.90
2019-02-24T07:25:20.710Z,50.50
2019-02-24T07:27:50.784Z,50.50
2019-02-24T07:30:23.561Z,50.00
2019-02-24T07:32:51.837Z,50.10
2019-02-24T07:35:21.476Z,49.70
2019-02-24T07:37:51.120Z,49.90
2019-02-24T07:40:20.832Z,50.30
2019-02-24T07:42:50.544Z,50.30
2019-02-24T07:45:20.281Z,50.00
2019-02-24T07:47:50.205Z,49.70
2019-02-24T07:50:19.852Z,49.20
2019-02-24T07:52:49.350Z,48.20
2019-02-24T07:55:19.338Z,46.90
2019-02-24T07:57:49.050Z,47.40
2019-02-24T08:00:18.687Z,46.10
2019-02-24T08:02:48.773Z,45.70
2019-02-24T08:05:18.424Z,45.40
2019-02-24T08:07:48.385Z,44.00
2019-02-24T08:10:18.036Z,43.60
2019-02-24T08:12:47.542Z,42.70
2019-02-24T08:15:17.200Z,42.10
2019-02-24T08:17:46.854Z,40.90
2019-02-24T08:20:16.640Z,39.80
2019-02-24T08:22:46.346Z,38.10
2019-02-24T08:25:16.459Z,37.80
2019-02-24T08:27:46.168Z,35.80
2019-02-24T08:30:16.193Z,33.40
2019-02-24T08:32:46.086Z,35.40
2019-02-24T08:35:15.741Z,33.10
2019-02-24T08:37:45.687Z,33.00
2019-02-24T08:40:15.324Z,30.10
2019-02-24T08:42:44.986Z,31.70
2019-02-24T08:45:14.623Z,29.60
2019-02-24T08:47:44.345Z,30.50
2019-02-24T08:50:14.113Z,30.70
2019-02-24T08:52:43.686Z,29.60
2019-02-24T08:55:13.251Z,29.30
2019-02-24T08:57:42.810Z,29.20
2019-02-24T09:00:15.065Z,29.00
2019-02-24T09:02:44.770Z,28.60
2019-02-24T09:05:15.491Z,28.60
2019-02-24T09:07:45.128Z,28.00
2019-02-24T09:10:15.131Z,27.80
2019-02-24T09:12:45.034Z,28.10
2019-02-24T09:15:15.458Z,27.50
2019-02-24T09:17:45.384Z,28.30
2019-02-24T09:20:16.445Z,27.20
2019-02-24T09:22:47.138Z,26.40
2019-02-24T09:25:16.877Z,26.40
2019-02-24T09:27:46.594Z,26.00
2019-02-24T09:30:16.310Z,26.40
2019-02-24T09:32:45.895Z,26.20
2019-02-24T09:35:15.549Z,26.00
2019-02-24T09:37:45.558Z,26.20
2019-02-24T09:40:15.173Z,26.60
2019-02-24T09:42:44.752Z,27.50
2019-02-24T09:45:14.475Z,27.10
2019-02-24T09:47:46.648Z,27.10
2019-02-24T09:50:15.728Z,26.40
2019-02-24T09:52:45.427Z,26.70
2019-02-24T09:55:15.208Z,26.80
2019-02-24T09:57:44.910Z,27.10
2019-02-24T10:00:17.602Z,25.30
2019-02-24T10:02:47.585Z,22.90
2019-02-24T10:05:17.241Z,24.00
2019-02-24T10:07:47.264Z,22.40
2019-02-24T10:10:16.952Z,22.10
2019-02-24T10:12:46.661Z,22.70
2019-02-24T10:15:16.283Z,20.90
2019-02-24T10:17:45.943Z,20.80
2019-02-24T10:20:15.650Z,20.80
2019-02-24T10:22:45.532Z,20.40
2019-02-24T10:25:15.544Z,20.40
2019-02-24T10:27:45.217Z,20.40
2019-02-24T10:30:16.231Z,19.60
2019-02-24T10:32:45.809Z,18.00
2019-02-24T10:35:15.595Z,16.60
2019-02-24T10:37:45.236Z,16.10
2019-02-24T10:40:16.121Z,14.50
2019-02-24T10:42:45.832Z,13.60
2019-02-24T10:45:19.978Z,12.20
2019-02-24T10:47:49.606Z,11.10
2019-02-24T10:50:19.340Z,12.00
2019-02-24T10:52:48.983Z,14.80
2019-02-24T10:55:18.715Z,16.80
2019-02-24T10:57:48.350Z,19.00
2019-02-24T11:00:22.707Z,18.60
2019-02-24T11:02:52.507Z,19.00
2019-02-24T11:05:22.171Z,19.80
2019-02-24T11:07:51.814Z,19.80
2019-02-24T11:10:21.668Z,18.90
2019-02-24T11:12:51.740Z,16.30
2019-02-24T11:15:21.472Z,14.80
2019-02-24T11:17:51.107Z,15.00
2019-02-24T11:20:20.763Z,15.60
2019-02-24T11:22:50.399Z,14.50
2019-02-24T11:25:20.079Z,14.90
2019-02-24T11:27:49.668Z,15.70
2019-02-24T11:30:19.381Z,17.50
2019-02-24T11:32:49.391Z,19.60
2019-02-24T11:35:19.406Z,19.40
2019-02-24T11:37:49.005Z,19.80
2019-02-24T11:40:19.208Z,19.20
2019-02-24T11:42:49.262Z,19.20
2019-02-24T11:45:18.831Z,16.50
2019-02-24T11:47:48.516Z,15.40
2019-02-24T11:50:18.134Z,17.60
2019-02-24T11:52:48.194Z,20.20
2019-02-24T11:55:18.196Z,21.10
2019-02-24T11:57:47.878Z,22.60
2019-02-24T12:00:18.246Z,22.50
2019-02-24T12:02:48.365Z,22.80
2019-02-24T12:05:18.025Z,26.00
2019-02-24T12:07:47.588Z,25.70
2019-02-24T12:10:17.248Z,26.50
2019-02-24T12:12:46.811Z,26.00
2019-02-24T12:15:16.806Z,26.00
2019-02-24T12:17:46.758Z,26.50
2019-02-24T12:20:16.844Z,26.70
2019-02-24T12:22:46.793Z,25.60
2019-02-24T12:25:16.787Z,27.60
2019-02-24T12:27:46.517Z,26.30
2019-02-24T12:30:17.722Z,27.40
2019-02-24T12:32:47.365Z,27.20
2019-02-24T12:35:17.036Z,26.90
2019-02-24T12:37:47.060Z,25.50
2019-02-24T12:40:17.009Z,27.00
2019-02-24T12:42:46.986Z,27.10
2019-02-24T12:45:16.578Z,25.50
2019-02-24T12:47:46.207Z,26.00
2019-02-24T12:50:17.802Z,26.40
2019-02-24T12:52:47.312Z,26.70
2019-02-24T12:55:17.099Z,26.60
2019-02-24T12:57:46.686Z,25.40
2019-02-24T13:00:19.289Z,26.00
2019-02-24T13:02:48.931Z,26.20
2019-02-24T13:05:18.982Z,26.30
2019-02-24T13:07:48.799Z,27.50
2019-02-24T13:10:19.255Z,26.40
2019-02-24T13:12:49.211Z,26.20
2019-02-24T13:15:18.857Z,27.10
2019-02-24T13:17:48.981Z,26.60
2019-02-24T13:20:18.702Z,26.10
2019-02-24T13:22:48.347Z,26.90
2019-02-24T13:25:17.987Z,26.20
2019-02-24T13:27:47.626Z,27.30
2019-02-24T13:30:17.907Z,27.50
2019-02-24T13:32:47.800Z,27.10
2019-02-24T13:35:17.439Z,27.60
2019-02-24T13:37:47.090Z,27.60
2019-02-24T13:40:17.299Z,28.20
2019-02-24T13:42:46.991Z,27.80
2019-02-24T13:45:18.963Z,27.90
2019-02-24T13:47:48.931Z,28.10
2019-02-24T13:50:18.887Z,27.60
2019-02-24T13:52:48.483Z,27.90
2019-02-24T13:55:18.203Z,27.90
2019-02-24T13:57:47.775Z,27.90
2019-02-24T14:00:19.678Z,27.80
2019-02-24T14:02:49.266Z,27.50
2019-02-24T14:05:18.961Z,28.00
2019-02-24T14:07:48.520Z,28.30
2019-02-24T14:10:18.256Z,28.20
2019-02-24T14:12:47.966Z,28.90
2019-02-24T14:15:17.951Z,29.50
2019-02-24T14:17:47.543Z,28.90
2019-02-24T14:20:18.380Z,29.80
2019-02-24T14:22:48.046Z,30.50
2019-02-24T14:25:18.313Z,30.00
2019-02-24T14:27:48.044Z,30.40
2019-02-24T14:30:18.666Z,30.20
2019-02-24T14:32:48.368Z,29.90
2019-02-24T14:35:23.371Z,30.00
2019-02-24T14:37:52.951Z,30.50
2019-02-24T14:40:22.681Z,31.20
2019-02-24T14:42:52.309Z,30.00
2019-02-24T14:45:25.518Z,31.00
2019-02-24T14:47:55.166Z,31.20
2019-02-24T14:50:24.810Z,32.70
2019-02-24T14:52:54.461Z,32.10
2019-02-24T14:55:24.041Z,32.60
2019-02-24T14:57:54.074Z,32.10
2019-02-24T15:00:24.383Z,31.60
2019-02-24T15:02:54.107Z,32.10
2019-02-24T15:05:23.739Z,33.30
2019-02-24T15:07:53.766Z,32.40
2019-02-24T15:10:24.964Z,32.30
2019-02-24T15:12:54.612Z,32.60
2019-02-24T15:15:32.420Z,32.90
2019-02-24T15:17:57.603Z,32.50
2019-02-24T15:20:27.594Z,32.90
2019-02-24T15:22:57.300Z,33.00
2019-02-24T15:25:27.430Z,33.00
2019-02-24T15:27:57.438Z,35.10
2019-02-24T15:30:34.846Z,34.30
2019-02-24T15:33:04.492Z,33.10
2019-02-24T15:35:34.651Z,35.30
2019-02-24T15:38:04.320Z,33.80
2019-02-24T15:40:33.972Z,33.50
2019-02-24T15:43:03.999Z,32.70
2019-02-24T15:45:33.711Z,34.00
2019-02-24T15:48:03.394Z,34.60
2019-02-24T15:50:34.031Z,33.00
2019-02-24T15:53:03.611Z,33.00
2019-02-24T15:55:33.566Z,32.50
2019-02-24T15:58:03.199Z,33.70
2019-02-24T16:00:32.699Z,33.70
2019-02-24T16:03:02.405Z,33.60
2019-02-24T16:05:32.417Z,34.00
2019-02-24T16:08:01.982Z,33.40
2019-02-24T16:10:31.781Z,34.10
2019-02-24T16:13:01.355Z,34.30
2019-02-24T16:15:30.998Z,35.00
2019-02-24T16:18:00.512Z,34.20
2019-02-24T16:20:35.456Z,35.90
2019-02-24T16:23:05.486Z,35.10
2019-02-24T16:25:35.629Z,34.40
2019-02-24T16:28:05.735Z,34.90
2019-02-24T16:30:35.645Z,35.00
2019-02-24T16:33:10.586Z,35.70
2019-02-24T16:35:36.550Z,35.70
2019-02-24T16:38:06.290Z,35.70
2019-02-24T16:40:35.939Z,35.30
2019-02-24T16:43:05.850Z,35.70
2019-02-24T16:45:35.750Z,36.00
2019-02-24T16:48:05.393Z,35.90
2019-02-24T16:50:35.143Z,36.50
2019-02-24T16:53:04.851Z,35.70
2019-02-24T16:55:34.509Z,36.00
2019-02-24T16:58:04.193Z,36.40
2019-02-24T17:00:33.977Z,37.90
2019-02-24T17:03:04.048Z,39.10
2019-02-24T17:05:34.156Z,39.80
2019-02-24T17:08:03.911Z,39.80
2019-02-24T17:10:33.612Z,39.60
2019-02-24T17:13:03.284Z,40.10
2019-02-24T17:15:33.295Z,40.60
2019-02-24T17:18:02.962Z,39.20
2019-02-24T17:20:32.924Z,40.10
2019-02-24T17:23:02.738Z,40.50
2019-02-24T17:25:32.402Z,40.60
2019-02-24T17:28:02.029Z,41.00
2019-02-24T17:30:31.751Z,41.80
2019-02-24T17:33:01.316Z,41.60
2019-02-24T17:35:31.176Z,41.60
2019-02-24T17:38:00.810Z,41.90
2019-02-24T17:40:30.916Z,41.90
2019-02-24T17:43:00.554Z,42.40
2019-02-24T17:45:30.257Z,42.30
2019-02-24T17:48:00.350Z,43.80
2019-02-24T17:50:30.361Z,43.20
2019-02-24T17:53:01.073Z,43.30
2019-02-24T17:55:30.810Z,43.00
2019-02-24T17:58:00.401Z,42.90
2019-02-24T18:00:35.081Z,43.10
2019-02-24T18:03:05.145Z,43.00
2019-02-24T18:05:34.840Z,43.40
2019-02-24T18:08:04.484Z,44.10
2019-02-24T18:10:34.066Z,43.80
2019-02-24T18:13:04.101Z,44.00
2019-02-24T18:15:33.760Z,45.10
2019-02-24T18:18:03.369Z,45.30
2019-02-24T18:20:32.938Z,45.90
2019-02-24T18:23:02.516Z,45.10
2019-02-24T18:25:32.161Z,45.10
2019-02-24T18:28:02.162Z,44.60
2019-02-24T18:30:31.963Z,43.60
2019-02-24T18:33:01.677Z,45.00
2019-02-24T18:35:31.271Z,44.40
2019-02-24T18:38:01.097Z,44.20
2019-02-24T18:40:30.732Z,45.10
2019-02-24T18:43:00.835Z,44.60
2019-02-24T18:45:30.938Z,44.60
2019-02-24T18:48:00.696Z,44.50
2019-02-24T18:50:30.345Z,45.10
2019-02-24T18:53:00.394Z,45.40
2019-02-24T18:55:30.020Z,45.90
2019-02-24T18:57:59.718Z,45.90
2019-02-24T19:00:29.752Z,46.00
2019-02-24T19:02:59.347Z,46.60
2019-02-24T19:05:29.056Z,46.60
2019-02-24T19:07:58.699Z,46.50
2019-02-24T19:10:28.655Z,47.00
2019-02-24T19:12:58.305Z,47.10
2019-02-24T19:15:27.945Z,47.00
2019-02-24T19:17:57.602Z,46.70
2019-02-24T19:20:27.338Z,47.30
2019-02-24T19:22:56.886Z,47.30
2019-02-24T19:25:26.542Z,46.80
2019-02-24T19:27:56.257Z,47.10
2019-02-24T19:30:25.895Z,47.80
2019-02-24T19:32:55.549Z,48.00
2019-02-24T19:35:25.295Z,47.30
2019-02-24T19:37:54.954Z,47.60
2019-02-24T19:40:24.966Z,47.60
2019-02-24T19:42:54.612Z,50.00
2019-02-24T19:45:26.986Z,49.30
2019-02-24T19:47:56.565Z,48.60
2019-02-24T19:50:26.681Z,54.50
2019-02-24T19:52:56.715Z,52.30
2019-02-24T19:55:26.350Z,50.80
2019-02-24T19:57:56.024Z,49.20
2019-02-24T20:00:26.339Z,47.50
2019-02-24T20:02:55.989Z,46.40
2019-02-24T20:05:25.626Z,44.60
2019-02-24T20:07:55.367Z,42.70
2019-02-24T20:10:28.768Z,43.80
2019-02-24T20:12:58.397Z,44.50
2019-02-24T20:15:28.134Z,44.50
2019-02-24T20:17:57.713Z,44.10
2019-02-24T20:20:27.448Z,44.00
2019-02-24T20:22:57.035Z,43.70
2019-02-24T20:25:27.015Z,44.00
2019-02-24T20:27:57.032Z,42.60
2019-02-24T20:30:28.566Z,43.30
2019-02-24T20:32:58.497Z,42.30
2019-02-24T20:35:28.148Z,42.80
2019-02-24T20:37:58.338Z,42.00
2019-02-24T20:40:28.458Z,42.90
2019-02-24T20:42:58.034Z,43.80
2019-02-24T20:45:29.180Z,43.50
2019-02-24T20:47:58.898Z,43.40
2019-02-24T20:50:30.507Z,43.50
2019-02-24T20:53:00.084Z,43.50
2019-02-24T20:55:29.649Z,43.10
2019-02-24T20:57:59.223Z,43.00
2019-02-24T21:00:34.609Z,43.50
2019-02-24T21:03:04.330Z,43.80
2019-02-24T21:05:33.936Z,43.80
2019-02-24T21:08:03.507Z,42.20
2019-02-24T21:10:33.845Z,42.30
2019-02-24T21:13:03.512Z,43.60
2019-02-24T21:15:33.172Z,44.00
2019-02-24T21:18:02.824Z,43.60
2019-02-24T21:20:33.926Z,44.30
2019-02-24T21:23:03.972Z,43.60
2019-02-24T21:25:33.633Z,44.30
2019-02-24T21:28:03.366Z,44.10
2019-02-24T21:30:33.298Z,43.60
2019-02-24T21:33:03.529Z,42.60
2019-02-24T21:35:33.545Z,41.90
2019-02-24T21:38:03.531Z,44.20
2019-02-24T21:40:33.146Z,44.50
2019-02-24T21:43:02.726Z,43.00
2019-02-24T21:45:32.886Z,44.30
2019-02-24T21:48:02.905Z,44.10
2019-02-24T21:50:32.929Z,42.60
2019-02-24T21:53:02.513Z,41.80
2019-02-24T21:55:32.058Z,42.60
2019-02-24T21:58:01.797Z,42.80
2019-02-24T22:00:31.508Z,40.80
2019-02-24T22:03:01.167Z,40.80
2019-02-24T22:05:31.079Z,42.30
2019-02-24T22:08:00.717Z,43.50
2019-02-24T22:10:30.286Z,42.10
2019-02-24T22:12:59.866Z,43.80
2019-02-24T22:15:29.583Z,41.50
2019-02-24T22:17:59.636Z,39.80
2019-02-24T22:20:29.211Z,43.20
2019-02-24T22:22:58.962Z,42.90
2019-02-24T22:25:28.458Z,41.60
2019-02-24T22:27:58.061Z,43.60
2019-02-24T22:30:27.708Z,43.80
2019-02-24T22:32:57.669Z,43.00
2019-02-24T22:35:27.311Z,40.80
2019-02-24T22:37:57.015Z,42.80
2019-02-24T22:40:26.973Z,42.40
2019-02-24T22:42:56.944Z,44.40
2019-02-24T22:45:26.602Z,43.10
2019-02-24T22:47:56.311Z,42.80
2019-02-24T22:50:26.063Z,40.80
2019-02-24T22:52:55.626Z,42.70
2019-02-24T22:55:25.352Z,44.30
2019-02-24T22:57:55.406Z,44.20
2019-02-24T23:00:53.445Z,44.60
2019-02-24T23:03:32.967Z,45.00
2019-02-24T23:06:02.667Z,44.50
2019-02-24T23:08:33.222Z,45.30
2019-02-24T23:11:03.291Z,42.90
2019-02-24T23:13:33.003Z,44.60
2019-02-24T23:16:02.801Z,45.90
2019-02-24T23:18:32.483Z,45.90
2019-02-24T23:21:02.200Z,45.00
2019-02-24T23:23:31.775Z,46.00
2019-02-24T23:26:01.509Z,46.70
2019-02-24T23:28:31.219Z,46.20
2019-02-24T23:31:00.805Z,46.10
2019-02-24T23:33:30.462Z,46.50
2019-02-24T23:36:00.482Z,45.70
2019-02-24T23:38:31.205Z,46.20
2019-02-24T23:41:01.325Z,45.70
2019-02-24T23:43:30.908Z,46.60
2019-02-24T23:46:00.582Z,46.00
2019-02-24T23:48:30.213Z,46.10
2019-02-24T23:50:59.939Z,45.60
2019-02-24T23:53:29.608Z,46.30
2019-02-24T23:55:59.241Z,46.50
2019-02-24T23:58:28.829Z,44.70
